Bangalore Airport, India

11:58 AM IST on July 29, 2016 (GMT +0530)
Pride Orchid | | Change Station

Elev 2890 ft 12.95 °N, 77.72 °E | Updated 3 minutes ago

Light Drizzle
Light Drizzle
71.7 °F
Feels Like 71.7 °F
N
5.0
Wind Variable Wind from NNW
Gusts 9.0 mph

Today
High -- | Low -- °F
--% Chance of Precip.
Yesterday
High -- | Low -- °F
Precip. -- in
Pressure 29.92 in
Visibility 3.7 miles
Clouds Scattered Clouds 800 ft
Scattered Clouds 1200 ft
Overcast 8000 ft
Dew Point 69 °F
Humidity 92%
Rainfall 2.49 in
Snow Depth Not available.
6:04 AM 6:47 PM
Waning Crescent, 25% visible
METAR VOBG 290600Z 29008KT 6000 -DZ SCT008 SCT012 OVC080 21/20 Q1013
Pressure 29.92 in
Visibility 3.7 miles
Clouds Scattered Clouds 800 ft
Scattered Clouds 1200 ft
Overcast 8000 ft
Dew Point 69 °F
Humidity 92%
Rainfall 2.49 in
Snow Depth Not available.
6:04 AM 6:47 PM
Waning Crescent, 25% visible
METAR VOBG 290600Z 29008KT 6000 -DZ SCT008 SCT012 OVC080 21/20 Q1013

10-Day Weather Forecast

No radar image for this location.
×

Almanac

Astronomy

Jul. 29, 2016 Rise Set
Actual Time
Civil Twilight
Nautical Twilight
Astronomical Twilight
Moon
Length of Visible Light
Length of Day
Tomorrow will be .
, % of the Moon is Illuminated

Today's Extremes

Country Highs Country Lows

Community

WunderPhotos

Upload Photos

1,928,299 photos uploaded!

WunderBlog® & News

Nearby

Air Quality

  Air Quality AQ Index Pollutant
Not available.

Snow Depth

Station Depth Elevation

Earthquake Activity

City Distance Mag. Time & Date
Minimum magnitude displayed is 2.5.

Coastal Water Temperatures

Place Temperature

Stations

Nearby Weather Stations

Station Location Temp. Windchill Dew Point Humidity Wind Precip. Elev Updated Type